createdAt,value
2023-01-31T00:01:41.274Z,2.16
2023-01-31T00:04:12.124Z,2.22
2023-01-31T00:06:43.438Z,2.09
2023-01-31T00:09:12.209Z,2.20
2023-01-31T00:11:39.997Z,2.29
2023-01-31T00:14:08.671Z,2.12
2023-01-31T00:16:36.559Z,2.18
2023-01-31T00:19:04.786Z,2.13
2023-01-31T00:21:32.768Z,2.06
2023-01-31T00:24:00.879Z,1.86
2023-01-31T00:26:31.120Z,1.38
2023-01-31T00:29:00.143Z,1.70
2023-01-31T00:31:29.723Z,2.04
2023-01-31T00:33:58.427Z,1.93
2023-01-31T00:36:32.617Z,1.81
2023-01-31T00:39:03.253Z,1.90
2023-01-31T00:41:31.781Z,1.83
2023-01-31T00:44:00.612Z,1.55
2023-01-31T00:46:28.779Z,1.78
2023-01-31T00:48:57.199Z,2.05
2023-01-31T00:51:26.724Z,1.98
2023-01-31T00:53:54.948Z,2.07
2023-01-31T00:56:24.349Z,2.18
2023-01-31T00:58:52.544Z,2.22
2023-01-31T01:01:26.524Z,2.00
2023-01-31T01:03:55.543Z,2.20
2023-01-31T01:06:23.696Z,2.22
2023-01-31T01:08:52.626Z,2.38
2023-01-31T01:11:32.205Z,2.44
2023-01-31T01:14:01.043Z,2.56
2023-01-31T01:16:33.069Z,2.25
2023-01-31T01:19:03.237Z,2.27
2023-01-31T01:21:33.421Z,2.17
2023-01-31T01:24:03.006Z,2.39
2023-01-31T01:26:32.919Z,2.46
2023-01-31T01:29:02.393Z,2.28
2023-01-31T01:31:32.544Z,2.24
2023-01-31T01:34:02.786Z,2.39
2023-01-31T01:36:34.652Z,2.26
2023-01-31T01:39:03.664Z,2.17
2023-01-31T01:41:33.860Z,2.24
2023-01-31T01:44:03.315Z,2.38
2023-01-31T01:46:41.463Z,2.40
2023-01-31T01:49:28.927Z,2.56
2023-01-31T01:51:58.309Z,2.53
2023-01-31T01:54:34.564Z,2.35
2023-01-31T01:57:07.216Z,2.08
2023-01-31T01:59:50.230Z,2.15
2023-01-31T02:02:18.189Z,2.11
2023-01-31T02:04:49.522Z,2.14
2023-01-31T02:07:17.121Z,2.13
2023-01-31T02:10:09.313Z,2.00
2023-01-31T02:12:36.930Z,2.00
2023-01-31T02:15:05.234Z,2.25
2023-01-31T02:17:32.880Z,2.06
2023-01-31T02:20:21.792Z,1.96
2023-01-31T02:22:58.643Z,1.83
2023-01-31T02:25:35.426Z,1.91
2023-01-31T02:28:32.052Z,1.75
2023-01-31T02:31:34.891Z,2.02
2023-01-31T02:34:23.805Z,2.18
2023-01-31T02:37:05.276Z,1.73
2023-01-31T02:40:08.552Z,2.16
2023-01-31T02:42:53.069Z,2.11
2023-01-31T02:45:33.001Z,2.14
2023-01-31T02:48:20.267Z,2.13
2023-01-31T02:51:11.649Z,2.21
2023-01-31T02:53:51.252Z,2.19
2023-01-31T02:56:31.034Z,2.20
2023-01-31T02:59:04.693Z,2.10
2023-01-31T03:01:37.086Z,2.05
2023-01-31T03:04:10.730Z,2.06
2023-01-31T03:06:44.284Z,2.09
2023-01-31T03:09:26.391Z,2.02
2023-01-31T03:12:24.093Z,1.90
2023-01-31T03:15:11.855Z,2.05
2023-01-31T03:17:50.704Z,2.30
2023-01-31T03:20:51.125Z,2.32
2023-01-31T03:23:21.588Z,2.42
2023-01-31T03:25:50.440Z,2.50
2023-01-31T03:28:27.679Z,2.59
2023-01-31T03:31:34.270Z,2.54
2023-01-31T03:34:06.242Z,2.52
2023-01-31T03:36:56.258Z,2.52
2023-01-31T03:40:04.051Z,2.42
2023-01-31T03:42:38.268Z,2.47
2023-01-31T03:45:33.951Z,2.52
2023-01-31T03:48:06.964Z,2.52
2023-01-31T03:50:42.058Z,2.43
2023-01-31T03:53:39.035Z,2.43
2023-01-31T03:56:15.833Z,2.43
2023-01-31T03:58:51.206Z,2.49
2023-01-31T04:01:21.904Z,2.50
2023-01-31T04:03:59.034Z,2.39
2023-01-31T04:06:27.521Z,2.20
2023-01-31T04:08:55.937Z,2.09
2023-01-31T04:11:26.506Z,2.15
2023-01-31T04:13:54.589Z,2.20
2023-01-31T04:16:23.789Z,2.16
2023-01-31T04:18:52.683Z,2.28
2023-01-31T04:21:20.064Z,2.15
2023-01-31T04:23:47.408Z,2.14
2023-01-31T04:26:15.620Z,1.98
2023-01-31T04:28:43.052Z,2.10
2023-01-31T04:31:10.881Z,1.90
2023-01-31T04:33:38.322Z,2.02
2023-01-31T04:36:06.462Z,2.00
2023-01-31T04:38:33.911Z,1.33
2023-01-31T04:41:01.741Z,1.56
2023-01-31T04:43:29.217Z,1.82
2023-01-31T04:45:56.735Z,1.55
2023-01-31T04:48:24.211Z,1.32
2023-01-31T04:50:51.791Z,1.39
2023-01-31T04:53:19.212Z,1.27
2023-01-31T04:55:47.070Z,1.12
2023-01-31T04:58:14.747Z,0.77
2023-01-31T05:00:42.660Z,0.92
2023-01-31T05:03:25.934Z,1.20
2023-01-31T05:05:55.194Z,1.35
2023-01-31T05:08:24.197Z,1.17
2023-01-31T05:10:58.627Z,1.35
2023-01-31T05:13:31.453Z,1.24
2023-01-31T05:15:59.637Z,1.18
2023-01-31T05:18:27.819Z,1.37
2023-01-31T05:20:55.531Z,1.50
2023-01-31T05:23:23.164Z,1.15
2023-01-31T05:25:51.583Z,1.10
2023-01-31T05:28:22.329Z,0.76
2023-01-31T05:30:50.124Z,0.84
2023-01-31T05:33:21.737Z,0.98
2023-01-31T05:35:49.819Z,1.01
2023-01-31T05:38:17.883Z,0.89
2023-01-31T05:40:46.347Z,1.27
2023-01-31T05:43:17.212Z,1.51
2023-01-31T05:45:45.268Z,1.53
2023-01-31T05:48:12.824Z,1.19
2023-01-31T05:50:40.578Z,1.40
2023-01-31T05:53:11.670Z,1.04
2023-01-31T05:55:39.676Z,0.78
2023-01-31T05:58:07.646Z,1.13
2023-01-31T06:00:39.419Z,1.28
2023-01-31T06:03:10.675Z,1.45
2023-01-31T06:05:44.494Z,1.83
2023-01-31T06:08:13.183Z,1.92
2023-01-31T06:10:41.127Z,2.02
2023-01-31T06:13:08.844Z,1.65
2023-01-31T06:15:38.469Z,1.75
2023-01-31T06:18:06.970Z,2.01
2023-01-31T06:20:35.841Z,1.58
2023-01-31T06:23:03.733Z,1.83
2023-01-31T06:25:32.938Z,1.72
2023-01-31T06:28:00.740Z,2.05
2023-01-31T06:30:35.420Z,2.26
2023-01-31T06:33:15.805Z,2.10
2023-01-31T06:35:44.189Z,2.18
2023-01-31T06:38:17.255Z,2.10
2023-01-31T06:40:44.969Z,2.36
2023-01-31T06:43:12.741Z,2.49
2023-01-31T06:45:45.225Z,2.76
2023-01-31T06:48:15.182Z,2.84
2023-01-31T06:50:43.301Z,2.86
2023-01-31T06:53:10.818Z,2.68
2023-01-31T06:55:39.681Z,2.51
2023-01-31T06:58:07.765Z,2.64
2023-01-31T07:00:35.634Z,2.81
2023-01-31T07:03:03.962Z,2.59
2023-01-31T07:05:33.606Z,2.90
2023-01-31T07:08:04.745Z,2.69
2023-01-31T07:10:37.361Z,3.00
2023-01-31T07:13:05.371Z,3.09
2023-01-31T07:15:32.888Z,3.24
2023-01-31T07:18:01.615Z,2.97
2023-01-31T07:20:29.339Z,3.03
2023-01-31T07:23:19.423Z,3.06
2023-01-31T07:25:47.548Z,3.23
2023-01-31T07:28:20.105Z,3.64
2023-01-31T07:31:05.948Z,3.95
2023-01-31T07:33:35.271Z,4.03
2023-01-31T07:36:06.626Z,4.02
2023-01-31T07:38:35.904Z,4.37
2023-01-31T07:41:06.389Z,4.66
2023-01-31T07:43:34.092Z,4.12
2023-01-31T07:46:02.115Z,4.10
2023-01-31T07:48:29.844Z,4.03
2023-01-31T07:51:02.363Z,4.19
2023-01-31T07:53:33.105Z,4.07
2023-01-31T07:56:13.779Z,3.35
2023-01-31T07:58:43.136Z,3.47
2023-01-31T08:01:36.778Z,3.13
2023-01-31T08:04:20.138Z,3.13
2023-01-31T08:06:50.298Z,3.39
2023-01-31T08:09:25.482Z,3.25
2023-01-31T08:11:55.875Z,3.52
2023-01-31T08:14:25.848Z,3.24
2023-01-31T08:16:56.997Z,3.33
2023-01-31T08:19:24.581Z,3.59
2023-01-31T08:21:54.661Z,3.64
2023-01-31T08:24:24.503Z,3.84
2023-01-31T08:26:54.781Z,3.97
2023-01-31T08:29:25.476Z,3.98
2023-01-31T08:31:59.557Z,4.03
2023-01-31T08:34:28.523Z,3.92
2023-01-31T08:36:57.291Z,3.90
2023-01-31T08:39:25.063Z,4.06
2023-01-31T08:41:52.921Z,3.97
2023-01-31T08:44:21.310Z,3.88
2023-01-31T08:46:49.053Z,4.10
2023-01-31T08:49:18.602Z,4.21
2023-01-31T08:51:48.298Z,4.44
2023-01-31T08:54:20.464Z,4.51
2023-01-31T08:56:52.028Z,4.33
2023-01-31T08:59:21.894Z,4.40
2023-01-31T09:01:50.546Z,4.14
2023-01-31T09:04:19.445Z,3.92
2023-01-31T09:07:09.480Z,4.09
2023-01-31T09:09:37.871Z,3.66
2023-01-31T09:12:05.755Z,3.87
2023-01-31T09:14:34.355Z,3.95
2023-01-31T09:17:02.832Z,3.99
2023-01-31T09:19:31.030Z,4.25
2023-01-31T09:21:58.940Z,4.40
2023-01-31T09:24:26.474Z,4.49
2023-01-31T09:26:57.209Z,4.60
2023-01-31T09:29:26.500Z,4.65
2023-01-31T09:31:54.741Z,4.58
2023-01-31T09:34:22.838Z,4.71
2023-01-31T09:36:53.303Z,4.59
2023-01-31T09:39:20.692Z,4.35
2023-01-31T09:41:52.354Z,4.46
2023-01-31T09:44:39.560Z,4.55
2023-01-31T09:47:30.089Z,4.34
2023-01-31T09:50:04.759Z,4.30
2023-01-31T09:52:34.854Z,4.41
2023-01-31T09:55:13.435Z,4.06
2023-01-31T09:58:04.841Z,4.14
2023-01-31T10:00:38.686Z,4.26
2023-01-31T10:03:22.941Z,4.20
2023-01-31T10:06:04.503Z,4.17
2023-01-31T10:08:47.378Z,4.19
2023-01-31T10:11:26.259Z,4.25
2023-01-31T10:14:34.343Z,3.94
2023-01-31T10:17:12.200Z,3.88
2023-01-31T10:19:50.483Z,3.82
2023-01-31T10:22:41.835Z,3.97
2023-01-31T10:25:12.729Z,4.37
2023-01-31T10:27:56.974Z,4.52
2023-01-31T10:30:32.209Z,4.54
2023-01-31T10:33:09.101Z,4.64
2023-01-31T10:35:41.900Z,4.61
2023-01-31T10:38:23.209Z,4.33
2023-01-31T10:40:59.022Z,4.31
2023-01-31T10:43:34.890Z,4.33
2023-01-31T10:46:02.994Z,4.48
2023-01-31T10:48:30.899Z,4.55
2023-01-31T10:51:27.044Z,4.76
2023-01-31T10:54:42.823Z,4.78
2023-01-31T10:57:11.489Z,4.85
2023-01-31T10:59:41.494Z,4.64
2023-01-31T11:02:23.948Z,4.77
2023-01-31T11:05:03.225Z,4.88
2023-01-31T11:07:39.701Z,4.79
2023-01-31T11:10:33.199Z,4.90
2023-01-31T11:13:04.826Z,4.93
2023-01-31T11:15:44.022Z,4.64
2023-01-31T11:18:26.272Z,4.19
2023-01-31T11:20:54.461Z,4.33
2023-01-31T11:23:25.851Z,4.58
2023-01-31T11:25:55.486Z,4.62
2023-01-31T11:28:28.011Z,4.73
2023-01-31T11:30:56.278Z,4.43
2023-01-31T11:33:41.347Z,4.25
2023-01-31T11:36:11.717Z,4.40
2023-01-31T11:38:40.984Z,4.67
2023-01-31T11:41:30.689Z,4.59
2023-01-31T11:44:14.960Z,4.61
2023-01-31T11:46:57.196Z,4.67
2023-01-31T11:49:29.231Z,4.25
2023-01-31T11:51:59.739Z,4.35
2023-01-31T11:54:34.688Z,4.65
2023-01-31T11:57:02.485Z,4.55
2023-01-31T11:59:31.392Z,4.31
2023-01-31T12:02:01.281Z,4.55
2023-01-31T12:04:37.025Z,4.73
2023-01-31T12:07:20.763Z,4.78
2023-01-31T12:09:48.706Z,4.73
2023-01-31T12:12:28.161Z,4.65
2023-01-31T12:15:13.465Z,4.55
2023-01-31T12:17:50.374Z,4.85
2023-01-31T12:20:36.602Z,4.77
2023-01-31T12:23:32.646Z,4.55
2023-01-31T12:26:06.131Z,4.25
2023-01-31T12:28:46.691Z,4.50
2023-01-31T12:31:29.486Z,4.81
2023-01-31T12:34:38.401Z,4.77
2023-01-31T12:37:27.237Z,4.42
2023-01-31T12:40:30.518Z,4.49
2023-01-31T12:43:04.398Z,4.65
2023-01-31T12:45:41.174Z,4.40
2023-01-31T12:48:48.243Z,4.37
2023-01-31T12:51:29.598Z,4.41
2023-01-31T12:54:20.744Z,4.03
2023-01-31T12:57:00.522Z,4.03
2023-01-31T12:59:46.942Z,4.19
2023-01-31T13:02:14.939Z,4.14
2023-01-31T13:04:44.083Z,3.82
2023-01-31T13:07:47.541Z,3.92
2023-01-31T13:10:27.872Z,3.90
2023-01-31T13:12:57.542Z,3.71
2023-01-31T13:15:39.068Z,3.67
2023-01-31T13:18:07.729Z,3.69
2023-01-31T13:20:40.615Z,3.64
2023-01-31T13:23:33.794Z,3.68
2023-01-31T13:26:22.018Z,3.58
2023-01-31T13:29:12.572Z,3.56
2023-01-31T13:31:48.958Z,3.66
2023-01-31T13:34:23.189Z,3.58
2023-01-31T13:37:23.732Z,3.48
2023-01-31T13:39:58.481Z,3.52
2023-01-31T13:42:26.810Z,3.47
2023-01-31T13:44:55.082Z,3.33
2023-01-31T13:47:30.819Z,3.48
2023-01-31T13:50:21.970Z,3.70
2023-01-31T13:52:53.545Z,3.64
2023-01-31T13:55:43.214Z,3.42
2023-01-31T13:58:17.951Z,3.40
2023-01-31T14:01:16.052Z,3.50
2023-01-31T14:04:11.416Z,3.22
2023-01-31T14:06:56.654Z,3.01
2023-01-31T14:09:43.193Z,2.97
2023-01-31T14:12:10.681Z,2.85
2023-01-31T14:14:47.171Z,2.98
2023-01-31T14:17:34.737Z,2.86
2023-01-31T14:20:29.025Z,3.02
2023-01-31T14:23:34.019Z,2.89
2023-01-31T14:26:01.577Z,2.59
2023-01-31T14:28:30.547Z,2.58
2023-01-31T14:30:58.172Z,2.37
2023-01-31T14:33:28.494Z,2.47
2023-01-31T14:36:29.192Z,2.38
2023-01-31T14:39:18.253Z,2.47
2023-01-31T14:42:04.392Z,2.55
2023-01-31T14:45:09.449Z,2.32
2023-01-31T14:47:49.050Z,2.19
2023-01-31T14:50:54.191Z,1.93
2023-01-31T14:53:49.324Z,2.14
2023-01-31T14:56:41.237Z,2.17
2023-01-31T14:59:27.123Z,2.17
2023-01-31T15:01:55.999Z,2.17
2023-01-31T15:04:26.538Z,1.94
2023-01-31T15:06:57.371Z,1.94
2023-01-31T15:09:28.330Z,1.77
2023-01-31T15:11:57.914Z,1.81
2023-01-31T15:14:34.146Z,1.71
2023-01-31T15:17:34.542Z,1.68
2023-01-31T15:20:06.320Z,1.51
2023-01-31T15:22:39.116Z,1.77
2023-01-31T15:25:21.458Z,1.67
2023-01-31T15:27:49.980Z,1.75
2023-01-31T15:30:22.313Z,1.40
2023-01-31T15:33:09.596Z,1.53
2023-01-31T15:35:59.430Z,1.48
2023-01-31T15:38:51.163Z,1.49
2023-01-31T15:41:44.739Z,1.36
2023-01-31T15:44:18.365Z,1.34
2023-01-31T15:46:48.573Z,1.36
2023-01-31T15:49:36.894Z,1.34
2023-01-31T15:52:22.848Z,1.20
2023-01-31T15:55:05.197Z,1.17
2023-01-31T15:58:03.818Z,1.40
2023-01-31T16:00:34.432Z,1.38
2023-01-31T16:03:03.300Z,1.36
2023-01-31T16:05:33.898Z,1.43
2023-01-31T16:08:28.992Z,1.39
2023-01-31T16:10:58.385Z,1.49
2023-01-31T16:13:26.780Z,1.59
2023-01-31T16:16:16.409Z,1.48
2023-01-31T16:18:54.081Z,1.60
2023-01-31T16:21:43.195Z,1.56
2023-01-31T16:24:19.449Z,1.55
2023-01-31T16:26:55.925Z,1.50
2023-01-31T16:29:32.171Z,1.45
2023-01-31T16:31:59.771Z,1.53
2023-01-31T16:34:36.469Z,1.40
2023-01-31T16:37:10.165Z,1.27
2023-01-31T16:39:51.070Z,1.15
2023-01-31T16:42:19.159Z,0.91
2023-01-31T16:44:46.796Z,0.82
2023-01-31T16:47:46.586Z,0.92
2023-01-31T16:50:24.726Z,0.76
2023-01-31T16:53:29.782Z,0.90
2023-01-31T16:56:17.285Z,0.71
2023-01-31T16:58:46.573Z,0.72
2023-01-31T17:01:18.621Z,0.87
2023-01-31T17:03:58.529Z,0.79
2023-01-31T17:06:26.241Z,0.45
2023-01-31T17:08:53.685Z,0.32
2023-01-31T17:11:40.856Z,-0.10
2023-01-31T17:14:09.107Z,-0.18
2023-01-31T17:16:36.557Z,-0.22
2023-01-31T17:19:04.258Z,-0.37
2023-01-31T17:21:38.074Z,-0.38
2023-01-31T17:24:06.016Z,-0.35
2023-01-31T17:26:33.417Z,-0.51
2023-01-31T17:29:02.317Z,-0.49
2023-01-31T17:31:31.733Z,-0.58
2023-01-31T17:33:59.265Z,-0.57
2023-01-31T17:36:26.680Z,-0.63
2023-01-31T17:38:54.277Z,-0.58
2023-01-31T17:41:24.855Z,-0.42
2023-01-31T17:43:52.537Z,-0.45
2023-01-31T17:46:20.235Z,-0.45
2023-01-31T17:48:47.775Z,-0.46
2023-01-31T17:51:15.343Z,-0.65
2023-01-31T17:53:50.603Z,-0.52
2023-01-31T17:56:18.804Z,-0.60
2023-01-31T17:58:46.631Z,-0.69
2023-01-31T18:01:14.582Z,-0.68
2023-01-31T18:03:43.033Z,-0.66
2023-01-31T18:06:11.518Z,-0.52
2023-01-31T18:08:39.253Z,-0.54
2023-01-31T18:11:09.636Z,-0.53
2023-01-31T18:13:38.739Z,-0.59
2023-01-31T18:16:09.046Z,-0.48
2023-01-31T18:18:40.651Z,-0.69
2023-01-31T18:21:16.630Z,-0.58
2023-01-31T18:23:48.912Z,-0.37
2023-01-31T18:26:18.022Z,-0.60
2023-01-31T18:28:46.790Z,-0.55
2023-01-31T18:31:16.086Z,-0.44
2023-01-31T18:33:46.214Z,-0.45
2023-01-31T18:36:20.213Z,-0.42
2023-01-31T18:38:49.585Z,-0.40
2023-01-31T18:41:19.227Z,-0.68
2023-01-31T18:43:49.006Z,-0.45
2023-01-31T18:46:17.419Z,-0.24
2023-01-31T18:48:45.409Z,-0.21
2023-01-31T18:51:14.922Z,-0.09
2023-01-31T18:53:47.081Z,-0.17
2023-01-31T18:56:17.880Z,-0.21
2023-01-31T18:58:46.777Z,-0.27
2023-01-31T19:01:15.689Z,-0.53
2023-01-31T19:03:44.134Z,-0.43
2023-01-31T19:06:23.167Z,-0.21
2023-01-31T19:08:52.432Z,-0.12
2023-01-31T19:11:21.844Z,-0.55
2023-01-31T19:13:49.404Z,-0.52
2023-01-31T19:16:20.962Z,-0.53
2023-01-31T19:18:49.845Z,-0.82
2023-01-31T19:21:25.768Z,-0.80
2023-01-31T19:23:55.799Z,-0.70
2023-01-31T19:26:23.802Z,-0.46
2023-01-31T19:28:51.518Z,-0.65
2023-01-31T19:31:21.338Z,-0.74
2023-01-31T19:33:51.436Z,-0.94
2023-01-31T19:36:23.356Z,-0.77
2023-01-31T19:38:51.383Z,-0.56
2023-01-31T19:41:21.319Z,-0.87
2023-01-31T19:43:50.709Z,-0.91
2023-01-31T19:46:19.044Z,-0.57
2023-01-31T19:48:46.799Z,-0.54
2023-01-31T19:51:16.861Z,-0.47
2023-01-31T19:53:45.653Z,-0.59
2023-01-31T19:56:13.343Z,-0.69
2023-01-31T19:58:41.301Z,-0.80
2023-01-31T20:01:11.854Z,-0.62
2023-01-31T20:03:39.842Z,-0.47
2023-01-31T20:06:10.551Z,-0.62
2023-01-31T20:08:38.905Z,-0.50
2023-01-31T20:11:08.006Z,-0.48
2023-01-31T20:13:35.773Z,-0.47
2023-01-31T20:16:09.099Z,-0.46
2023-01-31T20:18:38.029Z,-0.50
2023-01-31T20:21:05.687Z,-0.46
2023-01-31T20:23:34.143Z,-0.48
2023-01-31T20:26:01.576Z,-0.41
2023-01-31T20:28:29.078Z,-0.34
2023-01-31T20:31:02.778Z,-0.27
2023-01-31T20:33:30.356Z,-0.15
2023-01-31T20:35:57.935Z,-0.10
2023-01-31T20:38:25.601Z,-0.38
2023-01-31T20:40:54.602Z,-0.50
2023-01-31T20:43:41.094Z,-0.46
2023-01-31T20:46:11.575Z,-0.47
2023-01-31T20:48:40.543Z,-0.70
2023-01-31T20:51:08.753Z,-0.73
2023-01-31T20:53:36.200Z,-0.69
2023-01-31T20:56:11.219Z,-0.75
2023-01-31T20:58:41.254Z,-0.98
2023-01-31T21:01:10.364Z,-1.01
2023-01-31T21:03:38.081Z,-0.81
2023-01-31T21:06:06.030Z,-0.78
2023-01-31T21:08:35.660Z,-0.79
2023-01-31T21:11:11.964Z,-0.93
2023-01-31T21:13:40.226Z,-0.90
2023-01-31T21:16:09.012Z,-1.04
2023-01-31T21:18:37.500Z,-1.16
2023-01-31T21:21:09.512Z,-1.13
2023-01-31T21:23:39.295Z,-1.32
2023-01-31T21:26:08.953Z,-1.20
2023-01-31T21:28:37.241Z,-1.54
2023-01-31T21:31:08.017Z,-1.64
2023-01-31T21:33:36.318Z,-1.63
2023-01-31T21:36:08.883Z,-1.54
2023-01-31T21:38:37.492Z,-1.41
2023-01-31T21:41:24.219Z,-1.55
2023-01-31T21:43:51.731Z,-1.54
2023-01-31T21:46:19.275Z,-1.44
2023-01-31T21:48:47.011Z,-1.57
2023-01-31T21:51:16.358Z,-1.52
2023-01-31T21:53:44.368Z,-1.70
2023-01-31T21:56:17.289Z,-1.85
2023-01-31T21:58:45.768Z,-1.75
2023-01-31T22:01:33.789Z,-1.63
2023-01-31T22:04:02.088Z,-1.42
2023-01-31T22:06:35.989Z,-1.42
2023-01-31T22:09:05.889Z,-1.41
2023-01-31T22:11:34.824Z,-1.44
2023-01-31T22:14:14.019Z,-1.30
2023-01-31T22:16:42.389Z,-1.27
2023-01-31T22:19:12.427Z,-1.40
2023-01-31T22:21:41.573Z,-1.49
2023-01-31T22:24:11.828Z,-1.43
2023-01-31T22:26:42.608Z,-1.47
2023-01-31T22:29:12.682Z,-1.57
2023-01-31T22:31:40.697Z,-1.64
2023-01-31T22:34:11.726Z,-1.78
2023-01-31T22:36:39.339Z,-1.83
2023-01-31T22:39:07.471Z,-1.86
2023-01-31T22:41:34.919Z,-1.85
2023-01-31T22:44:02.390Z,-2.03
2023-01-31T22:46:30.550Z,-2.12
2023-01-31T22:48:58.035Z,-2.10
2023-01-31T22:51:29.560Z,-2.18
2023-01-31T22:53:58.348Z,-2.33
2023-01-31T22:56:29.708Z,-2.51
2023-01-31T22:58:58.980Z,-2.55
2023-01-31T23:01:29.274Z,-2.64
2023-01-31T23:04:02.115Z,-2.60
2023-01-31T23:06:30.497Z,-2.41
2023-01-31T23:08:58.363Z,-2.32
2023-01-31T23:11:26.049Z,-2.24
2023-01-31T23:13:53.690Z,-2.22
2023-01-31T23:16:47.283Z,-2.25
2023-01-31T23:19:15.256Z,-2.32
2023-01-31T23:21:43.404Z,-2.32
2023-01-31T23:24:12.781Z,-2.22
2023-01-31T23:26:40.327Z,-2.25
2023-01-31T23:29:07.756Z,-2.23
2023-01-31T23:31:35.329Z,-2.17
2023-01-31T23:34:03.047Z,-2.23
2023-01-31T23:36:30.357Z,-2.18
2023-01-31T23:38:57.823Z,-2.14
2023-01-31T23:41:25.213Z,-2.20
2023-01-31T23:43:52.820Z,-2.07
2023-01-31T23:46:20.382Z,-2.03
2023-01-31T23:48:48.020Z,-2.17
2023-01-31T23:51:15.421Z,-2.22
2023-01-31T23:53:43.047Z,-2.29
2023-01-31T23:56:10.505Z,-2.18
2023-01-31T23:58:38.018Z,-1.97
